createdAt,value
2022-09-04T00:00:12.186Z,49.80
2022-09-04T00:03:02.563Z,50.40
2022-09-04T00:05:45.696Z,50.40
2022-09-04T00:08:39.403Z,50.70
2022-09-04T00:11:42.758Z,50.90
2022-09-04T00:14:14.686Z,51.10
2022-09-04T00:16:52.754Z,51.00
2022-09-04T00:19:36.794Z,51.10
2022-09-04T00:22:28.187Z,51.20
2022-09-04T00:25:36.199Z,51.30
2022-09-04T00:28:11.303Z,51.40
2022-09-04T00:30:50.241Z,51.50
2022-09-04T00:33:26.700Z,51.60
2022-09-04T00:36:01.888Z,51.70
2022-09-04T00:38:28.630Z,52.30
2022-09-04T00:41:09.319Z,52.40
2022-09-04T00:43:49.802Z,52.70
2022-09-04T00:46:47.635Z,52.80
2022-09-04T00:49:37.307Z,52.80
2022-09-04T00:52:35.385Z,52.90
2022-09-04T00:55:39.313Z,53.00
2022-09-04T00:58:38.215Z,53.00
2022-09-04T01:01:05.334Z,53.20
2022-09-04T01:03:50.707Z,52.90
2022-09-04T01:06:17.421Z,53.10
2022-09-04T01:08:56.713Z,52.80
2022-09-04T01:11:45.326Z,53.10
2022-09-04T01:14:33.351Z,53.20
2022-09-04T01:17:27.647Z,53.50
2022-09-04T01:20:22.226Z,53.40
2022-09-04T01:23:10.087Z,53.50
2022-09-04T01:25:58.780Z,53.70
2022-09-04T01:28:32.395Z,53.80
2022-09-04T01:31:37.653Z,53.50
2022-09-04T01:34:22.926Z,53.80
2022-09-04T01:37:00.593Z,53.80
2022-09-04T01:39:30.794Z,53.90
2022-09-04T01:42:14.358Z,54.00
2022-09-04T01:44:41.069Z,54.10
2022-09-04T01:47:21.100Z,53.70
2022-09-04T01:50:01.778Z,53.80
2022-09-04T01:52:37.754Z,53.90
2022-09-04T01:55:18.209Z,53.70
2022-09-04T01:58:21.647Z,54.00
2022-09-04T02:01:05.026Z,54.00
2022-09-04T02:03:57.726Z,54.00
2022-09-04T02:06:44.632Z,54.10
2022-09-04T02:09:26.478Z,54.20
2022-09-04T02:12:28.572Z,54.30
2022-09-04T02:15:35.113Z,54.50
2022-09-04T02:18:13.629Z,54.60
2022-09-04T02:20:50.633Z,54.70
2022-09-04T02:23:20.245Z,54.80
2022-09-04T02:26:23.989Z,54.90
2022-09-04T02:29:08.283Z,55.10
2022-09-04T02:31:54.141Z,55.40
2022-09-04T02:34:48.332Z,55.60
2022-09-04T02:37:56.033Z,55.70
2022-09-04T02:40:28.567Z,55.80
2022-09-04T02:43:19.327Z,56.00
2022-09-04T02:46:12.004Z,56.30
2022-09-04T02:49:15.594Z,56.20
2022-09-04T02:51:48.049Z,56.50
2022-09-04T02:54:32.658Z,56.60
2022-09-04T02:57:28.107Z,57.00
2022-09-04T03:00:21.021Z,57.20
2022-09-04T03:03:09.380Z,57.30
2022-09-04T03:05:46.690Z,57.20
2022-09-04T03:08:23.657Z,57.30
2022-09-04T03:11:02.735Z,57.40
2022-09-04T03:13:38.747Z,57.60
2022-09-04T03:16:29.687Z,57.80
2022-09-04T03:19:20.017Z,58.00
2022-09-04T03:21:52.315Z,58.00
2022-09-04T03:24:39.499Z,58.20
2022-09-04T03:27:10.346Z,58.60
2022-09-04T03:30:01.324Z,58.50
2022-09-04T03:32:54.257Z,59.00
2022-09-04T03:35:25.668Z,58.70
2022-09-04T03:38:17.459Z,58.90
2022-09-04T03:41:06.208Z,59.50
2022-09-04T03:43:56.009Z,59.30
2022-09-04T03:46:56.356Z,59.30
2022-09-04T03:49:38.953Z,59.50
2022-09-04T03:52:30.658Z,59.60
2022-09-04T03:55:11.883Z,59.60
2022-09-04T03:58:16.156Z,59.90
2022-09-04T04:01:24.832Z,60.10
2022-09-04T04:04:18.263Z,60.20
2022-09-04T04:07:01.542Z,59.90
2022-09-04T04:09:34.069Z,60.60
2022-09-04T04:12:44.278Z,60.40
2022-09-04T04:15:21.938Z,60.80
2022-09-04T04:18:07.266Z,60.30
2022-09-04T04:20:46.141Z,61.00
2022-09-04T04:23:18.748Z,60.60
2022-09-04T04:26:40.368Z,60.80
2022-09-04T04:29:43.656Z,61.10
2022-09-04T04:32:24.233Z,61.10
2022-09-04T04:35:16.042Z,61.10
2022-09-04T04:38:00.787Z,61.50
2022-09-04T04:40:37.249Z,61.40
2022-09-04T04:43:13.935Z,61.90
2022-09-04T04:45:50.724Z,61.60
2022-09-04T04:48:52.470Z,61.70
2022-09-04T04:51:26.219Z,61.60
2022-09-04T04:54:09.955Z,61.30
2022-09-04T04:56:53.832Z,61.90
2022-09-04T04:59:54.287Z,61.60
2022-09-04T05:02:32.256Z,62.30
2022-09-04T05:05:13.350Z,62.40
2022-09-04T05:08:08.586Z,62.40
2022-09-04T05:10:43.435Z,62.70
2022-09-04T05:13:48.696Z,62.70
2022-09-04T05:16:35.839Z,62.90
2022-09-04T05:19:14.786Z,62.70
2022-09-04T05:21:57.448Z,62.90
2022-09-04T05:24:24.131Z,63.10
2022-09-04T05:27:10.180Z,62.60
2022-09-04T05:29:39.690Z,62.80
2022-09-04T05:32:27.614Z,62.70
2022-09-04T05:35:13.575Z,62.70
2022-09-04T05:38:07.860Z,63.10
2022-09-04T05:41:22.540Z,63.40
2022-09-04T05:44:13.156Z,63.20
2022-09-04T05:47:04.971Z,63.00
2022-09-04T05:50:08.855Z,63.20
2022-09-04T05:52:53.008Z,63.20
2022-09-04T05:55:31.938Z,62.90
2022-09-04T05:58:07.769Z,62.90
2022-09-04T06:01:00.815Z,62.80
2022-09-04T06:03:56.412Z,63.40
2022-09-04T06:06:38.874Z,63.10
2022-09-04T06:09:29.318Z,63.10
2022-09-04T06:12:10.997Z,63.30
2022-09-04T06:14:56.880Z,63.30
2022-09-04T06:17:49.438Z,62.90
2022-09-04T06:20:27.763Z,63.00
2022-09-04T06:23:27.175Z,62.90
2022-09-04T06:26:42.275Z,63.20
2022-09-04T06:29:26.818Z,62.90
2022-09-04T06:32:32.931Z,62.90
2022-09-04T06:35:36.241Z,62.90
2022-09-04T06:38:23.408Z,62.80
2022-09-04T06:41:30.491Z,62.50
2022-09-04T06:44:05.735Z,62.60
2022-09-04T06:47:04.811Z,62.60
2022-09-04T06:49:53.307Z,62.80
2022-09-04T06:52:32.644Z,62.70
2022-09-04T06:55:33.405Z,62.70
2022-09-04T06:59:01.167Z,62.70
2022-09-04T07:01:49.118Z,62.50
2022-09-04T07:04:43.982Z,62.50
2022-09-04T07:07:25.568Z,62.60
2022-09-04T07:10:01.903Z,62.60
2022-09-04T07:12:51.483Z,62.40
2022-09-04T07:15:38.353Z,62.70
2022-09-04T07:18:26.442Z,62.70
2022-09-04T07:21:02.231Z,62.30
2022-09-04T07:23:34.446Z,62.00
2022-09-04T07:26:14.395Z,61.80
2022-09-04T07:28:59.118Z,61.90
2022-09-04T07:31:35.045Z,61.70
2022-09-04T07:34:21.217Z,61.20
2022-09-04T07:37:23.314Z,61.20
2022-09-04T07:40:03.551Z,61.10
2022-09-04T07:42:48.226Z,60.90
2022-09-04T07:45:30.211Z,60.90
2022-09-04T07:48:35.336Z,60.70
2022-09-04T07:51:16.050Z,60.30
2022-09-04T07:54:07.759Z,60.10
2022-09-04T07:56:48.078Z,59.80
2022-09-04T07:59:48.155Z,59.50
2022-09-04T08:02:33.699Z,59.50
2022-09-04T08:05:20.432Z,59.20
2022-09-04T08:08:03.647Z,59.30
2022-09-04T08:11:09.459Z,59.40
2022-09-04T08:13:47.225Z,59.00
2022-09-04T08:16:17.938Z,58.60
2022-09-04T08:19:35.710Z,58.50
2022-09-04T08:22:04.879Z,58.30
2022-09-04T08:24:49.535Z,57.90
2022-09-04T08:27:36.493Z,57.60
2022-09-04T08:30:14.170Z,57.50
2022-09-04T08:32:58.609Z,57.20
2022-09-04T08:35:34.895Z,57.10
2022-09-04T08:38:33.387Z,57.00
2022-09-04T08:41:15.307Z,56.70
2022-09-04T08:44:22.550Z,56.30
2022-09-04T08:47:01.559Z,56.20
2022-09-04T08:49:54.034Z,56.00
2022-09-04T08:52:20.696Z,56.00
2022-09-04T08:54:50.911Z,55.60
2022-09-04T08:57:36.011Z,55.40
2022-09-04T09:00:10.668Z,55.00
2022-09-04T09:02:46.460Z,54.90
2022-09-04T09:05:23.043Z,54.80
2022-09-04T09:08:13.511Z,54.60
2022-09-04T09:10:40.150Z,54.50
2022-09-04T09:13:25.322Z,54.10
2022-09-04T09:16:42.950Z,54.00
2022-09-04T09:19:11.021Z,53.80
2022-09-04T09:21:43.552Z,53.60
2022-09-04T09:24:39.875Z,53.70
2022-09-04T09:27:28.277Z,54.40
2022-09-04T09:30:04.110Z,53.40
2022-09-04T09:32:49.407Z,53.20
2022-09-04T09:35:34.559Z,53.00
2022-09-04T09:38:19.901Z,52.60
2022-09-04T09:40:58.070Z,52.50
2022-09-04T09:43:59.805Z,52.10
2022-09-04T09:47:01.642Z,51.80
2022-09-04T09:49:55.398Z,51.70
2022-09-04T09:53:07.051Z,51.70
2022-09-04T09:55:57.077Z,51.50
2022-09-04T09:58:39.404Z,51.00
2022-09-04T10:01:32.403Z,51.10
2022-09-04T10:04:11.594Z,50.70
2022-09-04T10:07:10.313Z,50.40
2022-09-04T10:10:02.622Z,49.80
2022-09-04T10:13:14.763Z,49.10
2022-09-04T10:16:15.099Z,48.60
2022-09-04T10:18:59.830Z,47.90
2022-09-04T10:21:48.112Z,47.30
2022-09-04T10:24:36.320Z,46.60
2022-09-04T10:27:08.779Z,46.20
2022-09-04T10:30:01.034Z,46.30
2022-09-04T10:32:34.222Z,46.50
2022-09-04T10:35:20.500Z,45.90
2022-09-04T10:38:21.707Z,46.00
2022-09-04T10:41:00.249Z,45.80
2022-09-04T10:43:26.839Z,45.70
2022-09-04T10:46:23.055Z,45.30
2022-09-04T10:49:31.130Z,45.40
2022-09-04T10:52:07.828Z,45.30
2022-09-04T10:54:59.620Z,44.90
2022-09-04T10:57:53.505Z,44.90
2022-09-04T11:00:22.716Z,45.00
2022-09-04T11:03:22.373Z,44.20
2022-09-04T11:06:23.350Z,44.50
2022-09-04T11:09:28.290Z,44.30
2022-09-04T11:12:49.399Z,43.70
2022-09-04T11:15:45.075Z,43.40
2022-09-04T11:18:53.391Z,43.50
2022-09-04T11:21:42.863Z,43.50
2022-09-04T11:24:55.582Z,43.30
2022-09-04T11:27:48.999Z,43.00
2022-09-04T11:30:29.400Z,42.80
2022-09-04T11:33:04.924Z,42.30
2022-09-04T11:35:40.830Z,42.30
2022-09-04T11:38:29.527Z,42.60
2022-09-04T11:41:15.612Z,42.70
2022-09-04T11:44:01.474Z,42.10
2022-09-04T11:46:58.995Z,41.80
2022-09-04T11:49:44.433Z,41.90
2022-09-04T11:52:31.127Z,42.10
2022-09-04T11:55:10.069Z,41.70
2022-09-04T11:57:51.692Z,41.60
2022-09-04T12:00:19.658Z,41.60
2022-09-04T12:03:11.706Z,41.90
2022-09-04T12:05:54.995Z,42.30
2022-09-04T12:09:16.226Z,41.60
2022-09-04T12:12:08.198Z,41.80
2022-09-04T12:14:34.786Z,41.80
2022-09-04T12:17:35.520Z,41.40
2022-09-04T12:20:36.678Z,41.20
2022-09-04T12:23:31.234Z,41.20
2022-09-04T12:26:01.278Z,41.10
2022-09-04T12:28:55.683Z,40.70
2022-09-04T12:31:46.750Z,41.00
2022-09-04T12:35:19.796Z,41.00
2022-09-04T12:38:04.704Z,40.70
2022-09-04T12:40:53.186Z,40.60
2022-09-04T12:43:57.923Z,40.70
2022-09-04T12:46:50.131Z,40.30
2022-09-04T12:49:49.231Z,39.60
2022-09-04T12:52:32.233Z,39.20
2022-09-04T12:55:24.026Z,39.30
2022-09-04T12:58:15.565Z,39.90
2022-09-04T13:01:10.498Z,40.30
2022-09-04T13:03:46.726Z,40.30
2022-09-04T13:06:36.222Z,40.60
2022-09-04T13:09:28.965Z,40.60
2022-09-04T13:12:12.684Z,40.20
2022-09-04T13:14:51.055Z,40.40
2022-09-04T13:17:26.638Z,40.70
2022-09-04T13:20:25.217Z,40.60
2022-09-04T13:23:39.157Z,41.10
2022-09-04T13:26:34.882Z,40.40
2022-09-04T13:29:30.573Z,39.40
2022-09-04T13:32:14.813Z,38.60
2022-09-04T13:35:13.840Z,38.30
2022-09-04T13:38:05.502Z,38.20
2022-09-04T13:41:12.114Z,38.00
2022-09-04T13:44:05.518Z,38.10
2022-09-04T13:46:41.588Z,38.10
2022-09-04T13:49:18.035Z,38.10
2022-09-04T13:51:52.817Z,37.10
2022-09-04T13:54:46.518Z,36.80
2022-09-04T13:57:26.452Z,36.50
2022-09-04T13:59:57.080Z,36.00
2022-09-04T14:02:26.918Z,35.70
2022-09-04T14:05:18.661Z,35.50
2022-09-04T14:07:49.132Z,36.80
2022-09-04T14:10:28.867Z,36.00
2022-09-04T14:13:33.198Z,35.80
2022-09-04T14:16:11.509Z,36.10
2022-09-04T14:19:08.695Z,36.00
2022-09-04T14:22:06.015Z,35.80
2022-09-04T14:24:42.027Z,36.00
2022-09-04T14:27:27.847Z,37.00
2022-09-04T14:30:08.367Z,37.10
2022-09-04T14:33:08.899Z,36.60
2022-09-04T14:35:59.039Z,36.90
2022-09-04T14:39:09.485Z,35.60
2022-09-04T14:42:04.204Z,34.90
2022-09-04T14:44:44.180Z,34.60
2022-09-04T14:47:54.711Z,34.20
2022-09-04T14:50:30.211Z,33.80
2022-09-04T14:53:04.561Z,33.80
2022-09-04T14:55:34.746Z,33.20
2022-09-04T14:58:19.699Z,33.00
2022-09-04T15:01:10.286Z,32.90
2022-09-04T15:03:44.630Z,32.80
2022-09-04T15:06:22.577Z,33.10
2022-09-04T15:08:53.847Z,32.70
2022-09-04T15:11:34.780Z,32.70
2022-09-04T15:14:28.362Z,31.90
2022-09-04T15:17:05.920Z,32.20
2022-09-04T15:19:46.625Z,32.40
2022-09-04T15:22:26.172Z,32.60
2022-09-04T15:25:00.136Z,32.10
2022-09-04T15:27:58.487Z,32.10
2022-09-04T15:30:40.531Z,32.30
2022-09-04T15:33:18.754Z,32.00
2022-09-04T15:36:07.787Z,32.00
2022-09-04T15:38:36.291Z,32.30
2022-09-04T15:41:23.450Z,31.70
2022-09-04T15:44:01.216Z,31.00
2022-09-04T15:47:07.062Z,31.20
2022-09-04T15:49:48.718Z,31.60
2022-09-04T15:52:41.138Z,31.20
2022-09-04T15:55:32.646Z,30.50
2022-09-04T15:58:12.830Z,30.10
2022-09-04T16:01:06.250Z,30.00
2022-09-04T16:04:14.512Z,29.40
2022-09-04T16:06:48.282Z,29.90
2022-09-04T16:09:33.611Z,30.40
2022-09-04T16:12:33.204Z,30.30
2022-09-04T16:15:17.986Z,31.10
2022-09-04T16:17:49.346Z,31.20
2022-09-04T16:20:21.382Z,31.10
2022-09-04T16:22:49.763Z,30.70
2022-09-04T16:25:19.229Z,30.40
2022-09-04T16:28:32.484Z,30.90
2022-09-04T16:31:09.604Z,30.50
2022-09-04T16:33:45.269Z,31.30
2022-09-04T16:36:38.019Z,31.30
2022-09-04T16:39:49.463Z,31.30
2022-09-04T16:42:25.143Z,31.70
2022-09-04T16:45:01.607Z,32.10
2022-09-04T16:47:40.820Z,32.30
2022-09-04T16:50:30.323Z,32.10
2022-09-04T16:53:36.583Z,32.50
2022-09-04T16:56:13.823Z,32.20
2022-09-04T16:58:54.584Z,32.30
2022-09-04T17:01:39.105Z,32.80
2022-09-04T17:04:39.746Z,32.40
2022-09-04T17:07:07.308Z,32.20
2022-09-04T17:09:56.871Z,32.30
2022-09-04T17:12:35.579Z,31.90
2022-09-04T17:15:16.963Z,31.80
2022-09-04T17:17:47.130Z,31.20
2022-09-04T17:20:29.209Z,30.70
2022-09-04T17:28:41.591Z,30.00
2022-09-04T17:29:07.536Z,30.00
2022-09-04T17:29:46.768Z,30.10
2022-09-04T17:32:36.861Z,30.40
2022-09-04T17:40:44.351Z,30.90
2022-09-04T17:40:54.446Z,31.40
2022-09-04T17:41:58.988Z,31.70
2022-09-04T17:44:40.094Z,32.30
2022-09-04T17:47:42.519Z,32.70
2022-09-04T17:50:25.312Z,32.80
2022-09-04T17:53:13.207Z,32.90
2022-09-04T17:56:19.986Z,33.50
2022-09-04T17:59:02.011Z,33.90
2022-09-04T18:01:44.542Z,34.00
2022-09-04T18:04:31.325Z,34.40
2022-09-04T18:07:33.558Z,34.60
2022-09-04T18:10:32.399Z,34.90
2022-09-04T18:13:36.684Z,35.30
2022-09-04T18:16:07.365Z,36.60
2022-09-04T18:18:39.903Z,36.00
2022-09-04T18:21:29.198Z,36.40
2022-09-04T18:24:18.291Z,36.90
2022-09-04T18:27:10.876Z,37.20
2022-09-04T18:33:14.079Z,37.30
2022-09-04T18:37:07.005Z,37.50
2022-09-04T18:37:25.137Z,37.70
2022-09-04T18:39:08.839Z,38.00
2022-09-04T18:49:20.738Z,38.80
2022-09-04T18:50:29.062Z,39.10
2022-09-04T18:50:51.124Z,39.80
2022-09-04T18:51:15.134Z,40.00
2022-09-04T18:53:35.881Z,40.30
2022-09-04T18:56:22.158Z,40.20
2022-09-04T18:58:59.543Z,40.40
2022-09-04T19:01:34.875Z,40.60
2022-09-04T19:04:29.860Z,41.00
2022-09-04T19:07:08.414Z,41.40
2022-09-04T19:10:05.321Z,41.60
2022-09-04T19:12:55.667Z,41.60
2022-09-04T19:15:36.556Z,41.50
2022-09-04T19:18:41.552Z,41.70
2022-09-04T19:21:09.930Z,41.80
2022-09-04T19:23:50.273Z,42.00
2022-09-04T19:26:46.712Z,42.40
2022-09-04T19:29:42.575Z,42.50
2022-09-04T19:32:35.884Z,42.80
2022-09-04T19:35:29.915Z,43.00
2022-09-04T19:41:19.826Z,43.00
2022-09-04T19:46:05.991Z,43.10
2022-09-04T19:46:09.036Z,43.20
2022-09-04T19:47:42.176Z,43.40
2022-09-04T19:53:18.915Z,43.90
2022-09-04T19:53:46.978Z,44.20
2022-09-04T19:56:30.404Z,44.40
2022-09-04T19:59:05.368Z,44.50
2022-09-04T20:01:47.346Z,44.70
2022-09-04T20:04:32.874Z,45.10
2022-09-04T20:07:28.926Z,45.20
2022-09-04T20:10:00.192Z,45.60
2022-09-04T20:12:51.080Z,45.80
2022-09-04T20:15:30.087Z,45.90
2022-09-04T20:18:17.223Z,46.20
2022-09-04T20:20:46.505Z,46.30
2022-09-04T20:23:35.156Z,46.60
2022-09-04T20:26:30.770Z,46.90
2022-09-04T20:29:20.487Z,47.00
2022-09-04T20:32:18.051Z,47.20
2022-09-04T20:35:13.861Z,47.30
2022-09-04T20:38:25.630Z,47.50
2022-09-04T20:40:57.846Z,47.60
2022-09-04T20:43:44.546Z,47.70
2022-09-04T20:52:43.757Z,47.80
2022-09-04T20:52:50.935Z,48.20
2022-09-04T20:52:53.306Z,48.10
2022-09-04T20:55:46.292Z,48.60
2022-09-04T21:03:06.622Z,48.70
2022-09-04T21:03:20.988Z,48.60
2022-09-04T21:05:02.547Z,48.70
2022-09-04T21:07:41.779Z,48.80
2022-09-04T21:10:35.396Z,48.80
2022-09-04T21:13:16.722Z,48.70
2022-09-04T21:15:52.535Z,48.80
2022-09-04T21:18:41.290Z,49.10
2022-09-04T21:21:28.911Z,49.40
2022-09-04T21:24:03.136Z,49.60
2022-09-04T21:26:36.730Z,49.80
2022-09-04T21:29:29.747Z,50.00
2022-09-04T21:32:20.413Z,50.30
2022-09-04T21:35:03.085Z,50.70
2022-09-04T21:38:22.159Z,50.90
2022-09-04T21:41:16.405Z,51.10
2022-09-04T21:44:04.498Z,51.30
2022-09-04T21:47:01.840Z,51.50
2022-09-04T21:49:47.619Z,51.70
2022-09-04T21:52:56.208Z,51.60
2022-09-04T21:59:22.641Z,52.00
2022-09-04T22:02:28.874Z,51.80
2022-09-04T22:02:36.672Z,52.20
2022-09-04T22:05:10.609Z,52.30
2022-09-04T22:12:41.391Z,52.40
2022-09-04T22:13:37.502Z,52.60
2022-09-04T22:14:36.966Z,52.50
2022-09-04T22:17:23.097Z,52.60
2022-09-04T22:19:52.442Z,52.70
2022-09-04T22:23:06.710Z,52.80
2022-09-04T22:26:11.301Z,53.00
2022-09-04T22:29:01.371Z,53.00
2022-09-04T22:32:10.122Z,53.80
2022-09-04T22:35:06.337Z,53.30
2022-09-04T22:37:53.962Z,53.50
2022-09-04T22:40:31.450Z,53.60
2022-09-04T22:43:12.805Z,53.70
2022-09-04T22:46:17.337Z,53.70
2022-09-04T22:49:14.824Z,54.00
2022-09-04T22:52:19.196Z,54.20
2022-09-04T22:55:38.979Z,54.40
2022-09-04T22:58:37.212Z,54.50
2022-09-04T23:01:03.928Z,54.50
2022-09-04T23:03:44.906Z,54.30
2022-09-04T23:09:42.940Z,54.40
2022-09-04T23:13:54.385Z,54.20
2022-09-04T23:14:01.902Z,54.20
2022-09-04T23:16:39.487Z,54.20
2022-09-04T23:26:35.671Z,54.40
2022-09-04T23:26:48.006Z,54.70
2022-09-04T23:26:49.608Z,54.40
2022-09-04T23:29:11.063Z,54.80
2022-09-04T23:31:41.942Z,54.80
2022-09-04T23:34:44.074Z,54.70
2022-09-04T23:37:51.503Z,55.00
2022-09-04T23:40:32.417Z,55.00
2022-09-04T23:43:32.596Z,55.10
2022-09-04T23:46:08.588Z,55.40
2022-09-04T23:48:35.222Z,55.40
2022-09-04T23:51:20.447Z,55.40
2022-09-04T23:54:24.995Z,55.50
2022-09-04T23:57:15.404Z,55.90
